createdAt,value
2023-01-11T00:03:27.464Z,41.00
2023-01-11T00:08:22.132Z,42.10
2023-01-11T00:13:15.427Z,33.70
2023-01-11T00:18:09.050Z,39.10
2023-01-11T00:23:01.824Z,37.70
2023-01-11T00:27:55.647Z,42.30
2023-01-11T00:32:48.391Z,39.10
2023-01-11T00:37:41.739Z,40.60
2023-01-11T00:42:52.320Z,34.10
2023-01-11T00:48:01.853Z,37.60
2023-01-11T00:52:54.634Z,37.80
2023-01-11T00:57:47.435Z,43.40
2023-01-11T01:02:40.312Z,37.60
2023-01-11T01:07:33.111Z,41.00
2023-01-11T01:12:39.846Z,31.80
2023-01-11T01:17:32.709Z,35.50
2023-01-11T01:22:25.498Z,42.30
2023-01-11T01:27:20.067Z,38.10
2023-01-11T01:32:13.325Z,52.20
2023-01-11T01:37:08.450Z,47.80
2023-01-11T01:42:01.378Z,50.90
2023-01-11T01:46:54.166Z,39.20
2023-01-11T01:51:58.766Z,43.60
2023-01-11T01:56:55.827Z,47.40
2023-01-11T02:01:50.716Z,55.00
2023-01-11T02:06:44.399Z,56.50
2023-01-11T02:11:43.343Z,47.30
2023-01-11T02:16:36.428Z,54.10
2023-01-11T02:21:41.533Z,54.00
2023-01-11T02:27:19.487Z,56.80
2023-01-11T02:32:22.550Z,55.10
2023-01-11T02:37:38.535Z,60.30
2023-01-11T02:43:08.814Z,43.50
2023-01-11T02:48:20.179Z,49.30
2023-01-11T02:53:25.058Z,54.00
2023-01-11T02:58:21.127Z,52.90
2023-01-11T03:03:22.002Z,56.50
2023-01-11T03:08:40.678Z,49.00
2023-01-11T03:14:05.259Z,66.70
2023-01-11T03:19:01.031Z,53.90
2023-01-11T03:24:21.422Z,81.50
2023-01-11T03:29:26.855Z,64.00
2023-01-11T03:34:58.266Z,52.20
2023-01-11T03:40:04.233Z,44.30
2023-01-11T03:44:59.258Z,55.40
2023-01-11T03:50:08.859Z,42.40
2023-01-11T03:55:05.540Z,46.90
2023-01-11T03:59:58.631Z,59.70
2023-01-11T04:04:51.699Z,56.10
2023-01-11T04:09:44.420Z,41.10
2023-01-11T04:14:37.445Z,43.20
2023-01-11T04:19:30.360Z,46.80
2023-01-11T04:24:23.213Z,41.60
2023-01-11T04:29:15.954Z,47.20
2023-01-11T04:34:08.766Z,42.10
2023-01-11T04:39:02.031Z,32.90
2023-01-11T04:43:56.881Z,45.00
2023-01-11T04:48:49.651Z,39.80
2023-01-11T04:53:42.406Z,39.10
2023-01-11T04:58:38.309Z,41.40
2023-01-11T05:03:32.360Z,40.20
2023-01-11T05:08:27.238Z,34.80
2023-01-11T05:13:20.124Z,42.00
2023-01-11T05:18:12.955Z,35.10
2023-01-11T05:23:05.993Z,40.80
2023-01-11T05:27:58.767Z,48.10
2023-01-11T05:32:51.895Z,44.40
2023-01-11T05:37:44.706Z,50.60
2023-01-11T05:42:37.556Z,33.50
2023-01-11T05:47:30.370Z,34.70
2023-01-11T05:52:23.155Z,35.70
2023-01-11T05:57:15.958Z,51.60
2023-01-11T06:02:08.881Z,35.00
2023-01-11T06:07:01.776Z,41.40
2023-01-11T06:11:54.625Z,48.00
2023-01-11T06:16:47.525Z,33.80
2023-01-11T06:21:40.579Z,27.70
2023-01-11T06:26:34.507Z,30.10
2023-01-11T06:31:27.583Z,27.60
2023-01-11T06:36:20.439Z,30.70
2023-01-11T06:41:14.077Z,23.90
2023-01-11T06:46:10.821Z,34.50
2023-01-11T06:51:03.747Z,26.50
2023-01-11T06:55:58.784Z,31.40
2023-01-11T07:00:53.349Z,23.90
2023-01-11T07:05:46.322Z,24.90
2023-01-11T07:10:39.779Z,25.90
2023-01-11T07:15:32.712Z,37.20
2023-01-11T07:20:26.657Z,26.20
2023-01-11T07:25:20.117Z,24.30
2023-01-11T07:30:13.467Z,24.60
2023-01-11T07:35:06.740Z,26.80
2023-01-11T07:39:59.848Z,27.60
2023-01-11T07:44:52.635Z,20.70
2023-01-11T07:49:45.467Z,21.00
2023-01-11T07:54:38.257Z,23.00
2023-01-11T07:59:31.621Z,14.10
2023-01-11T08:04:24.438Z,19.50
2023-01-11T08:09:17.244Z,15.80
2023-01-11T08:14:29.530Z,20.10
2023-01-11T08:19:22.354Z,15.70
2023-01-11T08:24:15.318Z,14.90
2023-01-11T08:29:08.118Z,15.40
2023-01-11T08:34:00.904Z,18.90
2023-01-11T08:39:00.201Z,25.60
2023-01-11T08:43:53.380Z,15.30
2023-01-11T08:48:47.904Z,18.60
2023-01-11T08:53:43.104Z,12.20
2023-01-11T08:58:36.836Z,21.00
2023-01-11T09:03:34.531Z,19.20
2023-01-11T09:08:29.955Z,15.20
2023-01-11T09:13:23.051Z,20.20
2023-01-11T09:18:30.909Z,16.00
2023-01-11T09:28:21.441Z,14.60
2023-01-11T09:33:17.179Z,9.70
2023-01-11T09:38:10.079Z,12.60
2023-01-11T09:43:07.413Z,12.20
2023-01-11T09:48:12.893Z,11.10
2023-01-11T09:53:09.833Z,10.00
2023-01-11T09:58:06.892Z,9.40
2023-01-11T10:03:33.135Z,8.10
2023-01-11T10:18:33.080Z,8.70
2023-01-11T10:20:17.738Z,12.50
2023-01-11T10:25:26.064Z,12.50
2023-01-11T10:30:41.937Z,10.70
2023-01-11T10:35:59.194Z,13.60
2023-01-11T10:41:06.797Z,9.20
2023-01-11T10:51:42.573Z,14.30
2023-01-11T10:57:05.219Z,13.80
2023-01-11T11:02:01.760Z,11.20
2023-01-11T11:07:15.437Z,15.90
2023-01-11T11:12:38.870Z,15.70
2023-01-11T11:17:38.459Z,12.90
2023-01-11T11:22:31.220Z,14.60
2023-01-11T11:27:36.756Z,12.10
2023-01-11T11:32:37.214Z,20.10
2023-01-11T11:37:36.706Z,13.60
2023-01-11T11:42:31.519Z,11.90
2023-01-11T11:47:24.305Z,13.50
2023-01-11T11:52:19.013Z,13.90
2023-01-11T11:57:18.569Z,15.70
2023-01-11T12:02:29.791Z,13.60
2023-01-11T12:07:29.985Z,13.20
2023-01-11T12:12:26.943Z,13.60
2023-01-11T12:17:27.073Z,16.40
2023-01-11T12:22:22.928Z,16.10
2023-01-11T12:27:34.387Z,15.50
2023-01-11T12:32:58.933Z,15.20
2023-01-11T12:38:01.291Z,15.60
2023-01-11T12:43:49.283Z,15.70
2023-01-11T12:48:49.919Z,15.50
2023-01-11T12:54:01.202Z,16.40
2023-01-11T12:59:09.555Z,13.60
2023-01-11T13:04:17.181Z,13.50
2023-01-11T13:09:31.553Z,18.40
2023-01-11T13:14:27.102Z,14.60
2023-01-11T13:19:32.980Z,17.50
2023-01-11T13:24:30.513Z,14.90
2023-01-11T13:34:47.800Z,17.90
2023-01-11T13:39:49.211Z,19.20
2023-01-11T13:44:51.149Z,22.90
2023-01-11T13:50:10.862Z,20.90
2023-01-11T13:55:20.919Z,28.60
2023-01-11T14:00:28.019Z,23.80
2023-01-11T14:05:24.367Z,23.90
2023-01-11T14:10:29.781Z,26.70
2023-01-11T14:15:46.087Z,32.90
2023-01-11T14:21:22.904Z,27.40
2023-01-11T14:26:46.313Z,25.80
2023-01-11T14:32:12.961Z,19.50
2023-01-11T14:37:43.999Z,26.90
2023-01-11T14:42:52.221Z,25.60
2023-01-11T14:48:06.841Z,23.00
2023-01-11T14:53:02.461Z,29.30
2023-01-11T14:58:01.955Z,26.60
2023-01-11T15:03:08.452Z,28.10
2023-01-11T15:08:17.109Z,30.60
2023-01-11T15:13:16.792Z,31.30
2023-01-11T15:18:24.403Z,29.20
2023-01-11T15:23:19.113Z,29.50
2023-01-11T15:28:49.509Z,29.70
2023-01-11T15:33:51.178Z,25.60
2023-01-11T15:38:51.009Z,20.20
2023-01-11T15:44:08.753Z,23.50
2023-01-11T15:49:07.512Z,21.30
2023-01-11T15:54:21.501Z,25.20
2023-01-11T16:00:11.460Z,22.80
2023-01-11T16:05:16.967Z,20.30
2023-01-11T16:10:28.711Z,19.20
2023-01-11T16:15:49.479Z,23.90
2023-01-11T16:20:47.493Z,25.50
2023-01-11T16:25:43.533Z,27.30
2023-01-11T16:30:36.722Z,25.50
2023-01-11T16:35:30.007Z,26.90
2023-01-11T16:40:37.284Z,24.10
2023-01-11T16:45:54.437Z,25.60
2023-01-11T16:51:01.952Z,31.70
2023-01-11T16:56:03.251Z,29.80
2023-01-11T17:01:09.890Z,27.80
2023-01-11T17:06:08.853Z,28.80
2023-01-11T17:17:01.564Z,36.10
2023-01-11T17:22:08.620Z,29.10
2023-01-11T17:27:03.378Z,36.80
2023-01-11T17:31:58.629Z,35.00
2023-01-11T17:36:52.033Z,37.40
2023-01-11T17:42:02.440Z,32.50
2023-01-11T17:46:55.253Z,30.70
2023-01-11T17:51:48.237Z,28.50
2023-01-11T17:56:42.384Z,26.70
2023-01-11T18:01:35.279Z,26.10
2023-01-11T18:06:31.613Z,26.90
2023-01-11T18:11:28.151Z,28.90
2023-01-11T18:16:22.588Z,30.10
2023-01-11T18:21:27.666Z,29.90
2023-01-11T18:26:40.889Z,30.10
2023-01-11T18:31:34.067Z,26.80
2023-01-11T18:36:28.604Z,29.40
2023-01-11T18:41:35.358Z,29.10
2023-01-11T18:46:28.867Z,29.60
2023-01-11T18:51:37.008Z,26.40
2023-01-11T18:56:29.894Z,26.00
2023-01-11T19:01:22.842Z,25.30
2023-01-11T19:06:19.393Z,23.50
2023-01-11T19:11:14.105Z,32.50
2023-01-11T19:16:07.945Z,26.30
2023-01-11T19:21:06.928Z,24.80
2023-01-11T19:26:01.416Z,27.50
2023-01-11T19:30:54.351Z,35.90
2023-01-11T19:35:49.698Z,27.40
2023-01-11T19:40:42.504Z,28.10
2023-01-11T19:45:35.472Z,26.30
2023-01-11T19:50:28.261Z,33.60
2023-01-11T19:55:21.158Z,30.20
2023-01-11T20:00:15.432Z,28.50
2023-01-11T20:05:08.880Z,34.70
2023-01-11T20:10:01.905Z,30.60
2023-01-11T20:14:57.711Z,31.20
2023-01-11T20:19:54.613Z,41.70
2023-01-11T20:24:48.550Z,38.00
2023-01-11T20:29:43.863Z,35.80
2023-01-11T20:34:37.359Z,36.50
2023-01-11T20:39:30.792Z,35.20
2023-01-11T20:44:27.523Z,33.80
2023-01-11T20:49:23.168Z,38.10
2023-01-11T20:54:40.286Z,33.50
2023-01-11T20:59:36.615Z,33.00
2023-01-11T21:04:29.511Z,32.80
2023-01-11T21:09:22.557Z,29.30
2023-01-11T21:14:15.525Z,33.70
2023-01-11T21:19:09.088Z,38.00
2023-01-11T21:24:04.521Z,32.20
2023-01-11T21:29:02.684Z,35.90
2023-01-11T21:33:55.807Z,31.00
2023-01-11T21:38:49.274Z,33.80
2023-01-11T21:43:43.572Z,36.00
2023-01-11T21:48:37.805Z,34.70
2023-01-11T21:53:32.415Z,32.90
2023-01-11T21:58:25.255Z,36.20
2023-01-11T22:03:18.379Z,31.30
2023-01-11T22:08:12.190Z,30.50
2023-01-11T22:13:05.302Z,30.50
2023-01-11T22:17:58.192Z,29.90
2023-01-11T22:22:51.044Z,30.80
2023-01-11T22:27:43.988Z,29.70
2023-01-11T22:32:36.911Z,28.30
2023-01-11T22:37:29.752Z,26.50
2023-01-11T22:42:22.573Z,29.50
2023-01-11T22:47:15.443Z,26.80
2023-01-11T22:52:08.363Z,26.80
2023-01-11T22:57:01.283Z,28.90
2023-01-11T23:01:54.286Z,23.80
2023-01-11T23:06:47.249Z,25.30
2023-01-11T23:11:58.771Z,25.20
2023-01-11T23:16:52.113Z,25.60
2023-01-11T23:21:46.796Z,26.20
2023-01-11T23:26:40.824Z,23.70
2023-01-11T23:31:33.889Z,21.70
2023-01-11T23:36:32.396Z,24.60
2023-01-11T23:41:43.986Z,21.70
2023-01-11T23:46:55.358Z,25.20
2023-01-11T23:51:48.418Z,29.30
2023-01-11T23:56:41.811Z,27.80
